sensor_id;sensor_type;location;lat;lon;timestamp;P1;durP1;ratioP1;P2;durP2;ratioP2
41881;SDS011;27562;47.524;12.404;2023-04-03T00:02:07;0.93;;;0.47;;
41881;SDS011;27562;47.524;12.404;2023-04-03T00:04:33;0.68;;;0.50;;
41881;SDS011;27562;47.524;12.404;2023-04-03T00:06:59;0.63;;;0.50;;
41881;SDS011;27562;47.524;12.404;2023-04-03T00:09:25;0.88;;;0.60;;
41881;SDS011;27562;47.524;12.404;2023-04-03T00:11:51;0.90;;;0.50;;
41881;SDS011;27562;47.524;12.404;2023-04-03T00:14:16;0.75;;;0.60;;
41881;SDS011;27562;47.524;12.404;2023-04-03T00:16:42;0.88;;;0.60;;
41881;SDS011;27562;47.524;12.404;2023-04-03T00:19:08;0.95;;;0.60;;
41881;SDS011;27562;47.524;12.404;2023-04-03T00:21:36;0.52;;;0.45;;
41881;SDS011;27562;47.524;12.404;2023-04-03T00:24:02;0.60;;;0.50;;
41881;SDS011;27562;47.524;12.404;2023-04-03T00:26:28;0.77;;;0.68;;
41881;SDS011;27562;47.524;12.404;2023-04-03T00:28:54;1.10;;;0.60;;
41881;SDS011;27562;47.524;12.404;2023-04-03T00:31:21;2.45;;;1.00;;
41881;SDS011;27562;47.524;12.404;2023-04-03T00:33:46;1.48;;;0.90;;
41881;SDS011;27562;47.524;12.404;2023-04-03T00:36:12;1.33;;;0.70;;
41881;SDS011;27562;47.524;12.404;2023-04-03T00:38:39;1.20;;;0.60;;
41881;SDS011;27562;47.524;12.404;2023-04-03T00:41:05;1.58;;;0.90;;
41881;SDS011;27562;47.524;12.404;2023-04-03T00:43:31;1.73;;;0.70;;
41881;SDS011;27562;47.524;12.404;2023-04-03T00:45:57;0.63;;;0.47;;
41881;SDS011;27562;47.524;12.404;2023-04-03T00:50:57;1.25;;;0.70;;
41881;SDS011;27562;47.524;12.404;2023-04-03T00:53:26;2.13;;;0.80;;
41881;SDS011;27562;47.524;12.404;2023-04-03T00:55:58;2.40;;;1.02;;
41881;SDS011;27562;47.524;12.404;2023-04-03T00:58:32;1.08;;;0.70;;
41881;SDS011;27562;47.524;12.404;2023-04-03T01:01:03;1.13;;;0.70;;
41881;SDS011;27562;47.524;12.404;2023-04-03T01:03:33;1.38;;;0.77;;
41881;SDS011;27562;47.524;12.404;2023-04-03T01:05:59;1.23;;;0.70;;
41881;SDS011;27562;47.524;12.404;2023-04-03T01:08:25;1.65;;;0.93;;
41881;SDS011;27562;47.524;12.404;2023-04-03T01:10:51;1.45;;;0.70;;
41881;SDS011;27562;47.524;12.404;2023-04-03T01:13:22;1.17;;;0.70;;
41881;SDS011;27562;47.524;12.404;2023-04-03T01:15:53;1.40;;;0.70;;
41881;SDS011;27562;47.524;12.404;2023-04-03T01:18:19;1.52;;;0.65;;
41881;SDS011;27562;47.524;12.404;2023-04-03T01:26:10;0.90;;;0.70;;
41881;SDS011;27562;47.524;12.404;2023-04-03T01:28:36;1.83;;;0.73;;
41881;SDS011;27562;47.524;12.404;2023-04-03T01:34:12;1.48;;;0.80;;
41881;SDS011;27562;47.524;12.404;2023-04-03T01:36:38;1.27;;;0.80;;
41881;SDS011;27562;47.524;12.404;2023-04-03T01:39:03;1.15;;;0.75;;
41881;SDS011;27562;47.524;12.404;2023-04-03T01:41:29;1.10;;;0.85;;
41881;SDS011;27562;47.524;12.404;2023-04-03T01:43:55;1.92;;;0.80;;
41881;SDS011;27562;47.524;12.404;2023-04-03T01:46:20;1.20;;;0.90;;
41881;SDS011;27562;47.524;12.404;2023-04-03T01:48:47;1.98;;;1.00;;
41881;SDS011;27562;47.524;12.404;2023-04-03T01:51:13;2.15;;;1.38;;
41881;SDS011;27562;47.524;12.404;2023-04-03T01:53:38;1.83;;;1.20;;
41881;SDS011;27562;47.524;12.404;2023-04-03T01:56:04;1.65;;;1.13;;
41881;SDS011;27562;47.524;12.404;2023-04-03T01:58:30;1.30;;;1.00;;
41881;SDS011;27562;47.524;12.404;2023-04-03T02:00:56;2.50;;;1.40;;
41881;SDS011;27562;47.524;12.404;2023-04-03T02:03:22;2.38;;;1.42;;
41881;SDS011;27562;47.524;12.404;2023-04-03T02:05:48;2.45;;;1.40;;
41881;SDS011;27562;47.524;12.404;2023-04-03T02:08:15;2.67;;;1.60;;
41881;SDS011;27562;47.524;12.404;2023-04-03T02:10:43;2.42;;;1.58;;
41881;SDS011;27562;47.524;12.404;2023-04-03T02:13:10;2.80;;;1.52;;
41881;SDS011;27562;47.524;12.404;2023-04-03T02:15:39;2.47;;;1.50;;
41881;SDS011;27562;47.524;12.404;2023-04-03T02:18:05;3.40;;;1.45;;
41881;SDS011;27562;47.524;12.404;2023-04-03T02:20:31;3.08;;;1.73;;
41881;SDS011;27562;47.524;12.404;2023-04-03T02:22:57;3.38;;;1.77;;
41881;SDS011;27562;47.524;12.404;2023-04-03T02:25:23;2.38;;;1.80;;
41881;SDS011;27562;47.524;12.404;2023-04-03T02:27:48;3.95;;;2.13;;
41881;SDS011;27562;47.524;12.404;2023-04-03T02:30:14;2.90;;;2.00;;
41881;SDS011;27562;47.524;12.404;2023-04-03T02:32:40;4.07;;;2.55;;
41881;SDS011;27562;47.524;12.404;2023-04-03T02:35:07;3.90;;;2.20;;
41881;SDS011;27562;47.524;12.404;2023-04-03T02:37:35;3.83;;;2.70;;
41881;SDS011;27562;47.524;12.404;2023-04-03T02:40:01;4.38;;;2.72;;
41881;SDS011;27562;47.524;12.404;2023-04-03T02:42:27;4.03;;;2.50;;
41881;SDS011;27562;47.524;12.404;2023-04-03T02:44:53;3.10;;;2.40;;
41881;SDS011;27562;47.524;12.404;2023-04-03T02:47:19;3.45;;;2.35;;
41881;SDS011;27562;47.524;12.404;2023-04-03T02:49:45;4.05;;;2.58;;
41881;SDS011;27562;47.524;12.404;2023-04-03T02:52:11;4.00;;;2.70;;
41881;SDS011;27562;47.524;12.404;2023-04-03T02:54:37;4.40;;;2.75;;
41881;SDS011;27562;47.524;12.404;2023-04-03T02:57:03;4.80;;;3.10;;
41881;SDS011;27562;47.524;12.404;2023-04-03T02:59:29;4.95;;;3.20;;
41881;SDS011;27562;47.524;12.404;2023-04-03T03:01:55;5.10;;;2.90;;
41881;SDS011;27562;47.524;12.404;2023-04-03T03:04:21;5.53;;;3.33;;
41881;SDS011;27562;47.524;12.404;2023-04-03T03:06:47;5.40;;;3.55;;
41881;SDS011;27562;47.524;12.404;2023-04-03T03:09:13;5.93;;;3.63;;
41881;SDS011;27562;47.524;12.404;2023-04-03T03:11:39;4.90;;;3.33;;
41881;SDS011;27562;47.524;12.404;2023-04-03T03:14:04;4.57;;;3.33;;
41881;SDS011;27562;47.524;12.404;2023-04-03T03:16:30;4.75;;;2.72;;
41881;SDS011;27562;47.524;12.404;2023-04-03T03:18:56;5.03;;;3.17;;
41881;SDS011;27562;47.524;12.404;2023-04-03T03:21:22;4.25;;;2.95;;
41881;SDS011;27562;47.524;12.404;2023-04-03T03:23:47;4.93;;;3.17;;
41881;SDS011;27562;47.524;12.404;2023-04-03T03:26:13;3.88;;;2.85;;
41881;SDS011;27562;47.524;12.404;2023-04-03T03:28:39;5.65;;;3.28;;
41881;SDS011;27562;47.524;12.404;2023-04-03T03:31:06;5.13;;;3.33;;
41881;SDS011;27562;47.524;12.404;2023-04-03T03:33:32;5.25;;;3.22;;
41881;SDS011;27562;47.524;12.404;2023-04-03T03:35:58;5.80;;;3.72;;
41881;SDS011;27562;47.524;12.404;2023-04-03T03:38:24;5.28;;;3.58;;
41881;SDS011;27562;47.524;12.404;2023-04-03T03:40:51;6.60;;;3.83;;
41881;SDS011;27562;47.524;12.404;2023-04-03T03:43:17;4.88;;;3.45;;
41881;SDS011;27562;47.524;12.404;2023-04-03T03:45:44;4.97;;;3.40;;
41881;SDS011;27562;47.524;12.404;2023-04-03T03:48:10;7.38;;;4.18;;
41881;SDS011;27562;47.524;12.404;2023-04-03T03:50:36;5.32;;;3.40;;
41881;SDS011;27562;47.524;12.404;2023-04-03T03:53:02;5.47;;;3.67;;
41881;SDS011;27562;47.524;12.404;2023-04-03T03:55:28;5.88;;;3.17;;
41881;SDS011;27562;47.524;12.404;2023-04-03T03:57:53;6.43;;;4.03;;
41881;SDS011;27562;47.524;12.404;2023-04-03T04:00:19;5.75;;;3.70;;
41881;SDS011;27562;47.524;12.404;2023-04-03T04:02:46;5.82;;;3.80;;
41881;SDS011;27562;47.524;12.404;2023-04-03T04:05:11;5.65;;;3.42;;
41881;SDS011;27562;47.524;12.404;2023-04-03T04:07:37;6.18;;;3.50;;
41881;SDS011;27562;47.524;12.404;2023-04-03T04:10:03;5.35;;;3.40;;
41881;SDS011;27562;47.524;12.404;2023-04-03T04:12:30;6.38;;;3.53;;
41881;SDS011;27562;47.524;12.404;2023-04-03T04:14:55;5.90;;;3.90;;
41881;SDS011;27562;47.524;12.404;2023-04-03T04:17:21;5.35;;;3.15;;
41881;SDS011;27562;47.524;12.404;2023-04-03T04:19:47;5.95;;;3.50;;
41881;SDS011;27562;47.524;12.404;2023-04-03T04:22:13;5.45;;;3.35;;
41881;SDS011;27562;47.524;12.404;2023-04-03T04:24:38;6.28;;;4.05;;
41881;SDS011;27562;47.524;12.404;2023-04-03T04:27:04;5.95;;;4.28;;
41881;SDS011;27562;47.524;12.404;2023-04-03T04:29:30;6.93;;;3.90;;
41881;SDS011;27562;47.524;12.404;2023-04-03T04:32:00;5.70;;;3.60;;
41881;SDS011;27562;47.524;12.404;2023-04-03T04:34:27;8.20;;;4.10;;
41881;SDS011;27562;47.524;12.404;2023-04-03T04:36:53;7.53;;;4.25;;
41881;SDS011;27562;47.524;12.404;2023-04-03T04:39:18;6.97;;;4.28;;
41881;SDS011;27562;47.524;12.404;2023-04-03T04:41:44;6.47;;;4.22;;
41881;SDS011;27562;47.524;12.404;2023-04-03T04:44:10;7.18;;;4.53;;
41881;SDS011;27562;47.524;12.404;2023-04-03T04:46:35;6.85;;;4.20;;
41881;SDS011;27562;47.524;12.404;2023-04-03T04:49:01;8.35;;;4.30;;
41881;SDS011;27562;47.524;12.404;2023-04-03T04:51:27;6.93;;;4.20;;
41881;SDS011;27562;47.524;12.404;2023-04-03T04:53:53;8.35;;;4.45;;
41881;SDS011;27562;47.524;12.404;2023-04-03T04:56:18;7.95;;;4.25;;
41881;SDS011;27562;47.524;12.404;2023-04-03T04:58:44;7.97;;;4.80;;
41881;SDS011;27562;47.524;12.404;2023-04-03T05:01:10;7.55;;;4.88;;
41881;SDS011;27562;47.524;12.404;2023-04-03T05:03:36;11.23;;;5.97;;
41881;SDS011;27562;47.524;12.404;2023-04-03T05:06:02;6.40;;;4.07;;
41881;SDS011;27562;47.524;12.404;2023-04-03T05:08:28;8.30;;;4.82;;
41881;SDS011;27562;47.524;12.404;2023-04-03T05:10:54;7.65;;;4.95;;
41881;SDS011;27562;47.524;12.404;2023-04-03T05:13:20;8.05;;;5.10;;
41881;SDS011;27562;47.524;12.404;2023-04-03T05:15:46;7.65;;;4.75;;
41881;SDS011;27562;47.524;12.404;2023-04-03T05:18:12;7.97;;;4.78;;
41881;SDS011;27562;47.524;12.404;2023-04-03T05:20:38;9.55;;;5.10;;
41881;SDS011;27562;47.524;12.404;2023-04-03T05:23:04;6.93;;;4.93;;
41881;SDS011;27562;47.524;12.404;2023-04-03T05:25:30;9.23;;;5.35;;
41881;SDS011;27562;47.524;12.404;2023-04-03T05:27:56;7.43;;;4.80;;
41881;SDS011;27562;47.524;12.404;2023-04-03T05:30:22;8.52;;;5.20;;
41881;SDS011;27562;47.524;12.404;2023-04-03T05:32:48;9.27;;;5.95;;
41881;SDS011;27562;47.524;12.404;2023-04-03T05:35:14;9.32;;;5.50;;
41881;SDS011;27562;47.524;12.404;2023-04-03T05:37:40;8.90;;;5.03;;
41881;SDS011;27562;47.524;12.404;2023-04-03T05:40:06;8.35;;;5.03;;
41881;SDS011;27562;47.524;12.404;2023-04-03T05:42:33;9.05;;;5.38;;
41881;SDS011;27562;47.524;12.404;2023-04-03T05:44:59;8.55;;;5.47;;
41881;SDS011;27562;47.524;12.404;2023-04-03T05:47:24;8.43;;;5.18;;
41881;SDS011;27562;47.524;12.404;2023-04-03T05:49:50;7.05;;;4.80;;
41881;SDS011;27562;47.524;12.404;2023-04-03T05:52:26;8.35;;;4.53;;
41881;SDS011;27562;47.524;12.404;2023-04-03T05:54:53;7.47;;;4.53;;
41881;SDS011;27562;47.524;12.404;2023-04-03T05:57:20;8.20;;;5.07;;
41881;SDS011;27562;47.524;12.404;2023-04-03T05:59:46;7.88;;;4.25;;
41881;SDS011;27562;47.524;12.404;2023-04-03T06:02:12;8.30;;;5.15;;
41881;SDS011;27562;47.524;12.404;2023-04-03T06:04:43;6.85;;;4.63;;
41881;SDS011;27562;47.524;12.404;2023-04-03T06:07:13;8.35;;;4.97;;
41881;SDS011;27562;47.524;12.404;2023-04-03T06:09:41;6.90;;;4.72;;
41881;SDS011;27562;47.524;12.404;2023-04-03T06:12:07;7.50;;;4.55;;
41881;SDS011;27562;47.524;12.404;2023-04-03T06:14:34;11.57;;;5.47;;
41881;SDS011;27562;47.524;12.404;2023-04-03T06:17:00;7.75;;;4.70;;
41881;SDS011;27562;47.524;12.404;2023-04-03T06:19:26;8.10;;;5.00;;
41881;SDS011;27562;47.524;12.404;2023-04-03T06:21:53;10.85;;;6.05;;
41881;SDS011;27562;47.524;12.404;2023-04-03T06:24:19;7.07;;;4.85;;
41881;SDS011;27562;47.524;12.404;2023-04-03T06:26:46;7.70;;;5.03;;
41881;SDS011;27562;47.524;12.404;2023-04-03T06:29:13;6.95;;;4.25;;
41881;SDS011;27562;47.524;12.404;2023-04-03T06:31:39;7.22;;;4.47;;
41881;SDS011;27562;47.524;12.404;2023-04-03T06:34:05;6.80;;;4.40;;
41881;SDS011;27562;47.524;12.404;2023-04-03T06:36:32;7.72;;;4.55;;
41881;SDS011;27562;47.524;12.404;2023-04-03T06:38:59;6.30;;;3.70;;
41881;SDS011;27562;47.524;12.404;2023-04-03T06:41:26;8.57;;;4.70;;
41881;SDS011;27562;47.524;12.404;2023-04-03T06:43:52;7.85;;;5.38;;
41881;SDS011;27562;47.524;12.404;2023-04-03T06:46:21;7.22;;;3.92;;
41881;SDS011;27562;47.524;12.404;2023-04-03T06:48:48;7.13;;;4.03;;
41881;SDS011;27562;47.524;12.404;2023-04-03T06:53:54;6.45;;;4.20;;
41881;SDS011;27562;47.524;12.404;2023-04-03T06:56:21;6.38;;;4.00;;
41881;SDS011;27562;47.524;12.404;2023-04-03T06:58:47;6.88;;;4.13;;
41881;SDS011;27562;47.524;12.404;2023-04-03T07:01:14;6.15;;;3.92;;
41881;SDS011;27562;47.524;12.404;2023-04-03T07:03:41;6.75;;;4.07;;
41881;SDS011;27562;47.524;12.404;2023-04-03T07:06:09;6.45;;;3.58;;
41881;SDS011;27562;47.524;12.404;2023-04-03T07:08:37;7.20;;;3.78;;
41881;SDS011;27562;47.524;12.404;2023-04-03T07:11:03;9.02;;;4.20;;
41881;SDS011;27562;47.524;12.404;2023-04-03T07:13:29;6.28;;;3.88;;
41881;SDS011;27562;47.524;12.404;2023-04-03T07:15:55;5.28;;;3.63;;
41881;SDS011;27562;47.524;12.404;2023-04-03T07:18:21;6.18;;;3.63;;
41881;SDS011;27562;47.524;12.404;2023-04-03T07:20:47;5.38;;;4.13;;
41881;SDS011;27562;47.524;12.404;2023-04-03T07:23:13;5.25;;;3.20;;
41881;SDS011;27562;47.524;12.404;2023-04-03T07:25:43;5.75;;;3.20;;
41881;SDS011;27562;47.524;12.404;2023-04-03T07:28:09;7.43;;;4.00;;
41881;SDS011;27562;47.524;12.404;2023-04-03T07:30:43;5.57;;;3.88;;
41881;SDS011;27562;47.524;12.404;2023-04-03T07:33:10;5.75;;;3.40;;
41881;SDS011;27562;47.524;12.404;2023-04-03T07:35:38;4.63;;;2.90;;
41881;SDS011;27562;47.524;12.404;2023-04-03T07:38:04;6.03;;;3.35;;
41881;SDS011;27562;47.524;12.404;2023-04-03T07:40:30;5.40;;;3.60;;
41881;SDS011;27562;47.524;12.404;2023-04-03T07:42:56;5.05;;;3.10;;
41881;SDS011;27562;47.524;12.404;2023-04-03T07:45:22;5.20;;;3.10;;
41881;SDS011;27562;47.524;12.404;2023-04-03T07:47:48;5.03;;;3.03;;
41881;SDS011;27562;47.524;12.404;2023-04-03T07:50:14;5.80;;;2.92;;
41881;SDS011;27562;47.524;12.404;2023-04-03T07:52:40;5.07;;;3.08;;
41881;SDS011;27562;47.524;12.404;2023-04-03T07:55:07;4.47;;;2.92;;
41881;SDS011;27562;47.524;12.404;2023-04-03T07:57:33;5.03;;;2.88;;
41881;SDS011;27562;47.524;12.404;2023-04-03T08:00:00;5.45;;;3.40;;
41881;SDS011;27562;47.524;12.404;2023-04-03T08:02:26;4.30;;;3.30;;
41881;SDS011;27562;47.524;12.404;2023-04-03T08:04:52;4.28;;;2.63;;
41881;SDS011;27562;47.524;12.404;2023-04-03T08:07:17;4.88;;;3.17;;
41881;SDS011;27562;47.524;12.404;2023-04-03T08:09:43;3.58;;;2.50;;
41881;SDS011;27562;47.524;12.404;2023-04-03T08:12:09;6.85;;;3.97;;
41881;SDS011;27562;47.524;12.404;2023-04-03T08:14:36;5.38;;;3.53;;
41881;SDS011;27562;47.524;12.404;2023-04-03T08:17:02;5.40;;;3.30;;
41881;SDS011;27562;47.524;12.404;2023-04-03T08:19:29;5.53;;;4.00;;
41881;SDS011;27562;47.524;12.404;2023-04-03T08:21:56;3.50;;;2.63;;
41881;SDS011;27562;47.524;12.404;2023-04-03T08:24:24;3.75;;;2.63;;
41881;SDS011;27562;47.524;12.404;2023-04-03T08:26:50;5.10;;;2.40;;
41881;SDS011;27562;47.524;12.404;2023-04-03T08:29:16;4.47;;;2.72;;
41881;SDS011;27562;47.524;12.404;2023-04-03T08:31:41;4.20;;;2.78;;
41881;SDS011;27562;47.524;12.404;2023-04-03T08:34:07;5.68;;;2.88;;
41881;SDS011;27562;47.524;12.404;2023-04-03T08:36:33;5.40;;;3.25;;
41881;SDS011;27562;47.524;12.404;2023-04-03T08:38:59;4.55;;;2.60;;
41881;SDS011;27562;47.524;12.404;2023-04-03T08:44:02;3.45;;;2.35;;
41881;SDS011;27562;47.524;12.404;2023-04-03T08:47:04;4.50;;;2.53;;
41881;SDS011;27562;47.524;12.404;2023-04-03T08:49:48;4.75;;;2.42;;
41881;SDS011;27562;47.524;12.404;2023-04-03T08:52:28;4.22;;;2.55;;
41881;SDS011;27562;47.524;12.404;2023-04-03T08:55:01;4.88;;;2.60;;
41881;SDS011;27562;47.524;12.404;2023-04-03T08:57:36;3.85;;;2.42;;
41881;SDS011;27562;47.524;12.404;2023-04-03T09:00:30;4.28;;;2.92;;
41881;SDS011;27562;47.524;12.404;2023-04-03T09:02:56;3.63;;;2.55;;
41881;SDS011;27562;47.524;12.404;2023-04-03T09:19:08;3.35;;;2.50;;
41881;SDS011;27562;47.524;12.404;2023-04-03T09:21:42;2.92;;;1.90;;
41881;SDS011;27562;47.524;12.404;2023-04-03T09:24:09;3.65;;;2.28;;
41881;SDS011;27562;47.524;12.404;2023-04-03T09:26:42;4.80;;;2.45;;
41881;SDS011;27562;47.524;12.404;2023-04-03T09:29:19;3.15;;;2.30;;
41881;SDS011;27562;47.524;12.404;2023-04-03T09:31:50;4.05;;;2.05;;
41881;SDS011;27562;47.524;12.404;2023-04-03T09:34:25;4.32;;;2.00;;
41881;SDS011;27562;47.524;12.404;2023-04-03T09:37:00;3.03;;;2.13;;
41881;SDS011;27562;47.524;12.404;2023-04-03T09:39:31;3.15;;;2.03;;
41881;SDS011;27562;47.524;12.404;2023-04-03T09:42:02;3.10;;;1.73;;
41881;SDS011;27562;47.524;12.404;2023-04-03T09:44:40;5.93;;;3.60;;
41881;SDS011;27562;47.524;12.404;2023-04-03T09:47:21;3.72;;;2.00;;
41881;SDS011;27562;47.524;12.404;2023-04-03T09:49:49;3.30;;;2.20;;
41881;SDS011;27562;47.524;12.404;2023-04-03T09:52:21;3.83;;;1.92;;
41881;SDS011;27562;47.524;12.404;2023-04-03T09:54:49;3.67;;;1.90;;
41881;SDS011;27562;47.524;12.404;2023-04-03T09:57:15;2.45;;;1.52;;
41881;SDS011;27562;47.524;12.404;2023-04-03T09:59:45;3.58;;;1.92;;
41881;SDS011;27562;47.524;12.404;2023-04-03T10:02:30;3.55;;;2.00;;
41881;SDS011;27562;47.524;12.404;2023-04-03T10:05:03;2.58;;;1.67;;
41881;SDS011;27562;47.524;12.404;2023-04-03T10:07:49;3.35;;;1.83;;
41881;SDS011;27562;47.524;12.404;2023-04-03T10:10:18;3.03;;;1.80;;
41881;SDS011;27562;47.524;12.404;2023-04-03T10:12:48;3.53;;;1.70;;
41881;SDS011;27562;47.524;12.404;2023-04-03T10:15:28;3.33;;;1.77;;
41881;SDS011;27562;47.524;12.404;2023-04-03T10:18:02;2.92;;;1.73;;
41881;SDS011;27562;47.524;12.404;2023-04-03T10:20:41;3.92;;;1.90;;
41881;SDS011;27562;47.524;12.404;2023-04-03T10:34:42;2.70;;;1.52;;
41881;SDS011;27562;47.524;12.404;2023-04-03T10:45:19;4.43;;;1.73;;
41881;SDS011;27562;47.524;12.404;2023-04-03T10:50:43;3.33;;;1.77;;
41881;SDS011;27562;47.524;12.404;2023-04-03T10:58:39;3.08;;;1.85;;
41881;SDS011;27562;47.524;12.404;2023-04-03T11:01:09;2.70;;;1.58;;
41881;SDS011;27562;47.524;12.404;2023-04-03T11:03:40;4.70;;;2.17;;
41881;SDS011;27562;47.524;12.404;2023-04-03T11:06:11;2.40;;;1.77;;
41881;SDS011;27562;47.524;12.404;2023-04-03T11:09:00;3.90;;;1.75;;
41881;SDS011;27562;47.524;12.404;2023-04-03T11:11:40;2.85;;;1.73;;
41881;SDS011;27562;47.524;12.404;2023-04-03T11:20:03;2.92;;;1.77;;
41881;SDS011;27562;47.524;12.404;2023-04-03T11:22:53;2.22;;;1.50;;
41881;SDS011;27562;47.524;12.404;2023-04-03T11:25:24;2.72;;;1.55;;
41881;SDS011;27562;47.524;12.404;2023-04-03T11:27:54;2.78;;;1.75;;
41881;SDS011;27562;47.524;12.404;2023-04-03T11:35:55;3.13;;;1.58;;
41881;SDS011;27562;47.524;12.404;2023-04-03T11:38:30;3.47;;;1.52;;
41881;SDS011;27562;47.524;12.404;2023-04-03T11:41:04;4.20;;;1.60;;
41881;SDS011;27562;47.524;12.404;2023-04-03T11:43:32;3.10;;;1.75;;
41881;SDS011;27562;47.524;12.404;2023-04-03T11:46:00;3.10;;;1.45;;
41881;SDS011;27562;47.524;12.404;2023-04-03T11:51:02;2.40;;;1.63;;
41881;SDS011;27562;47.524;12.404;2023-04-03T11:53:45;2.10;;;1.40;;
41881;SDS011;27562;47.524;12.404;2023-04-03T11:59:38;2.40;;;1.67;;
41881;SDS011;27562;47.524;12.404;2023-04-03T12:01:49;4.15;;;1.40;;
41881;SDS011;27562;47.524;12.404;2023-04-03T12:04:15;2.72;;;1.40;;
41881;SDS011;27562;47.524;12.404;2023-04-03T12:07:11;2.20;;;1.52;;
41881;SDS011;27562;47.524;12.404;2023-04-03T12:12:40;5.35;;;1.50;;
41881;SDS011;27562;47.524;12.404;2023-04-03T12:17:47;5.75;;;1.70;;
41881;SDS011;27562;47.524;12.404;2023-04-03T12:23:34;3.30;;;1.90;;
41881;SDS011;27562;47.524;12.404;2023-04-03T12:26:21;3.08;;;1.63;;
41881;SDS011;27562;47.524;12.404;2023-04-03T12:28:53;2.30;;;1.63;;
41881;SDS011;27562;47.524;12.404;2023-04-03T12:31:20;3.00;;;1.85;;
41881;SDS011;27562;47.524;12.404;2023-04-03T12:33:59;4.13;;;1.80;;
41881;SDS011;27562;47.524;12.404;2023-04-03T12:36:47;3.85;;;1.63;;
41881;SDS011;27562;47.524;12.404;2023-04-03T12:40:08;3.15;;;1.90;;
41881;SDS011;27562;47.524;12.404;2023-04-03T12:45:59;4.93;;;1.90;;
41881;SDS011;27562;47.524;12.404;2023-04-03T12:48:31;3.05;;;1.48;;
41881;SDS011;27562;47.524;12.404;2023-04-03T12:51:19;2.67;;;1.60;;
41881;SDS011;27562;47.524;12.404;2023-04-03T12:53:51;2.90;;;1.70;;
41881;SDS011;27562;47.524;12.404;2023-04-03T12:56:23;4.07;;;2.13;;
41881;SDS011;27562;47.524;12.404;2023-04-03T12:58:52;2.85;;;1.70;;
41881;SDS011;27562;47.524;12.404;2023-04-03T13:01:23;2.55;;;1.65;;
41881;SDS011;27562;47.524;12.404;2023-04-03T13:03:57;2.60;;;1.50;;
41881;SDS011;27562;47.524;12.404;2023-04-03T13:06:24;2.70;;;1.55;;
41881;SDS011;27562;47.524;12.404;2023-04-03T13:08:54;3.33;;;1.73;;
41881;SDS011;27562;47.524;12.404;2023-04-03T13:11:22;2.67;;;1.60;;
41881;SDS011;27562;47.524;12.404;2023-04-03T13:14:03;2.95;;;1.58;;
41881;SDS011;27562;47.524;12.404;2023-04-03T13:16:31;2.15;;;1.27;;
41881;SDS011;27562;47.524;12.404;2023-04-03T13:18:58;4.20;;;1.95;;
41881;SDS011;27562;47.524;12.404;2023-04-03T13:21:25;2.95;;;1.67;;
41881;SDS011;27562;47.524;12.404;2023-04-03T13:23:57;2.97;;;1.50;;
41881;SDS011;27562;47.524;12.404;2023-04-03T13:26:27;5.60;;;1.75;;
41881;SDS011;27562;47.524;12.404;2023-04-03T13:28:57;2.70;;;1.67;;
41881;SDS011;27562;47.524;12.404;2023-04-03T13:31:27;2.53;;;1.75;;
41881;SDS011;27562;47.524;12.404;2023-04-03T13:34:05;3.00;;;1.70;;
41881;SDS011;27562;47.524;12.404;2023-04-03T13:36:37;2.95;;;1.45;;
41881;SDS011;27562;47.524;12.404;2023-04-03T13:39:21;6.38;;;1.92;;
41881;SDS011;27562;47.524;12.404;2023-04-03T13:41:57;3.22;;;2.00;;
41881;SDS011;27562;47.524;12.404;2023-04-03T13:44:31;1.98;;;1.45;;
41881;SDS011;27562;47.524;12.404;2023-04-03T13:47:00;4.53;;;1.55;;
41881;SDS011;27562;47.524;12.404;2023-04-03T13:49:41;3.90;;;1.63;;
41881;SDS011;27562;47.524;12.404;2023-04-03T13:52:22;3.15;;;1.60;;
41881;SDS011;27562;47.524;12.404;2023-04-03T13:55:00;3.60;;;1.90;;
41881;SDS011;27562;47.524;12.404;2023-04-03T13:57:36;3.00;;;1.50;;
41881;SDS011;27562;47.524;12.404;2023-04-03T14:00:20;3.15;;;1.70;;
41881;SDS011;27562;47.524;12.404;2023-04-03T14:02:53;3.90;;;1.40;;
41881;SDS011;27562;47.524;12.404;2023-04-03T14:05:21;2.10;;;1.38;;
41881;SDS011;27562;47.524;12.404;2023-04-03T14:07:49;2.58;;;1.60;;
41881;SDS011;27562;47.524;12.404;2023-04-03T14:10:16;3.50;;;1.77;;
41881;SDS011;27562;47.524;12.404;2023-04-03T14:12:42;2.40;;;1.33;;
41881;SDS011;27562;47.524;12.404;2023-04-03T14:15:24;2.85;;;1.48;;
41881;SDS011;27562;47.524;12.404;2023-04-03T14:17:53;2.65;;;1.60;;
41881;SDS011;27562;47.524;12.404;2023-04-03T14:20:21;2.92;;;1.67;;
41881;SDS011;27562;47.524;12.404;2023-04-03T14:22:51;2.78;;;1.77;;
41881;SDS011;27562;47.524;12.404;2023-04-03T14:25:19;3.03;;;1.67;;
41881;SDS011;27562;47.524;12.404;2023-04-03T14:27:48;3.90;;;1.98;;
41881;SDS011;27562;47.524;12.404;2023-04-03T14:30:20;3.10;;;2.15;;
41881;SDS011;27562;47.524;12.404;2023-04-03T14:32:49;4.35;;;2.20;;
41881;SDS011;27562;47.524;12.404;2023-04-03T14:35:16;2.92;;;1.80;;
41881;SDS011;27562;47.524;12.404;2023-04-03T14:37:44;3.47;;;2.13;;
41881;SDS011;27562;47.524;12.404;2023-04-03T14:40:13;2.75;;;1.60;;
41881;SDS011;27562;47.524;12.404;2023-04-03T14:42:44;3.95;;;2.20;;
41881;SDS011;27562;47.524;12.404;2023-04-03T14:45:12;3.67;;;2.00;;
41881;SDS011;27562;47.524;12.404;2023-04-03T14:47:41;4.07;;;2.30;;
41881;SDS011;27562;47.524;12.404;2023-04-03T14:50:17;2.95;;;1.95;;
41881;SDS011;27562;47.524;12.404;2023-04-03T14:52:52;2.92;;;1.83;;
41881;SDS011;27562;47.524;12.404;2023-04-03T14:55:20;4.30;;;2.40;;
41881;SDS011;27562;47.524;12.404;2023-04-03T14:57:47;4.90;;;2.15;;
41881;SDS011;27562;47.524;12.404;2023-04-03T15:00:17;3.75;;;2.35;;
41881;SDS011;27562;47.524;12.404;2023-04-03T15:02:44;5.05;;;2.67;;
41881;SDS011;27562;47.524;12.404;2023-04-03T15:05:11;5.95;;;3.28;;
41881;SDS011;27562;47.524;12.404;2023-04-03T15:07:45;2.88;;;2.10;;
41881;SDS011;27562;47.524;12.404;2023-04-03T15:12:42;4.78;;;2.65;;
41881;SDS011;27562;47.524;12.404;2023-04-03T15:15:08;3.55;;;2.40;;
41881;SDS011;27562;47.524;12.404;2023-04-03T15:17:35;3.05;;;2.00;;
41881;SDS011;27562;47.524;12.404;2023-04-03T15:20:01;3.70;;;2.13;;
41881;SDS011;27562;47.524;12.404;2023-04-03T15:22:28;3.58;;;2.20;;
41881;SDS011;27562;47.524;12.404;2023-04-03T15:24:54;3.53;;;2.38;;
41881;SDS011;27562;47.524;12.404;2023-04-03T15:27:20;5.75;;;2.42;;
41881;SDS011;27562;47.524;12.404;2023-04-03T15:29:45;3.72;;;2.03;;
41881;SDS011;27562;47.524;12.404;2023-04-03T15:32:11;3.50;;;2.30;;
41881;SDS011;27562;47.524;12.404;2023-04-03T15:34:38;4.72;;;2.03;;
41881;SDS011;27562;47.524;12.404;2023-04-03T15:37:04;4.55;;;2.08;;
41881;SDS011;27562;47.524;12.404;2023-04-03T15:39:30;3.35;;;1.83;;
41881;SDS011;27562;47.524;12.404;2023-04-03T15:41:56;3.55;;;2.20;;
41881;SDS011;27562;47.524;12.404;2023-04-03T15:44:29;2.50;;;1.55;;
41881;SDS011;27562;47.524;12.404;2023-04-03T15:46:55;3.47;;;2.00;;
41881;SDS011;27562;47.524;12.404;2023-04-03T15:49:21;5.15;;;2.28;;
41881;SDS011;27562;47.524;12.404;2023-04-03T15:51:47;2.72;;;1.75;;
41881;SDS011;27562;47.524;12.404;2023-04-03T15:54:12;2.95;;;1.95;;
41881;SDS011;27562;47.524;12.404;2023-04-03T15:56:38;2.88;;;1.67;;
41881;SDS011;27562;47.524;12.404;2023-04-03T15:59:04;5.40;;;2.03;;
41881;SDS011;27562;47.524;12.404;2023-04-03T16:01:30;3.63;;;1.88;;
41881;SDS011;27562;47.524;12.404;2023-04-03T16:03:56;4.95;;;2.53;;
41881;SDS011;27562;47.524;12.404;2023-04-03T16:06:22;3.60;;;1.90;;
41881;SDS011;27562;47.524;12.404;2023-04-03T16:08:49;4.10;;;1.85;;
41881;SDS011;27562;47.524;12.404;2023-04-03T16:11:16;4.85;;;1.80;;
41881;SDS011;27562;47.524;12.404;2023-04-03T16:13:41;5.35;;;2.00;;